createdAt,value
2022-11-24T00:01:23.533Z,1.65
2022-11-24T00:06:27.199Z,1.80
2022-11-24T00:08:55.372Z,1.17
2022-11-24T00:11:31.138Z,2.10
2022-11-24T00:13:59.255Z,1.48
2022-11-24T00:16:35.819Z,1.70
2022-11-24T00:19:06.568Z,2.17
2022-11-24T00:21:33.504Z,2.00
2022-11-24T00:24:00.609Z,2.10
2022-11-24T00:26:33.521Z,1.88
2022-11-24T00:29:03.684Z,1.80
2022-11-24T00:31:35.169Z,2.03
2022-11-24T00:34:05.832Z,1.83
2022-11-24T00:36:34.663Z,2.08
2022-11-24T00:39:14.026Z,1.60
2022-11-24T00:41:42.023Z,1.67
2022-11-24T00:44:09.073Z,1.70
2022-11-24T00:46:36.368Z,1.73
2022-11-24T00:49:03.988Z,1.75
2022-11-24T00:51:31.279Z,1.50
2022-11-24T00:54:00.123Z,1.60
2022-11-24T00:56:29.575Z,1.50
2022-11-24T00:58:56.852Z,1.90
2022-11-24T01:01:27.538Z,1.33
2022-11-24T01:03:55.278Z,1.25
2022-11-24T01:06:26.449Z,1.75
2022-11-24T01:08:54.406Z,1.50
2022-11-24T01:11:26.594Z,1.40
2022-11-24T01:13:57.653Z,1.77
2022-11-24T01:18:55.457Z,1.13
2022-11-24T01:21:23.431Z,1.92
2022-11-24T01:23:50.887Z,1.70
2022-11-24T01:26:22.313Z,1.40
2022-11-24T01:28:57.185Z,2.17
2022-11-24T01:31:26.146Z,1.63
2022-11-24T01:33:53.959Z,1.10
2022-11-24T01:36:22.102Z,1.33
2022-11-24T01:38:49.434Z,1.45
2022-11-24T01:41:23.107Z,1.50
2022-11-24T01:43:52.210Z,1.95
2022-11-24T01:46:43.336Z,1.83
2022-11-24T01:52:01.075Z,1.88
2022-11-24T01:54:36.657Z,1.98
2022-11-24T01:57:32.782Z,1.65
2022-11-24T02:00:10.419Z,1.95
2022-11-24T02:02:45.047Z,1.50
2022-11-24T02:05:21.224Z,2.13
2022-11-24T02:07:49.068Z,1.70
2022-11-24T02:10:17.193Z,1.65
2022-11-24T02:12:48.833Z,1.98
2022-11-24T02:15:17.488Z,1.95
2022-11-24T02:17:44.631Z,1.58
2022-11-24T02:20:13.383Z,1.90
2022-11-24T02:23:17.095Z,1.67
2022-11-24T02:25:59.256Z,1.67
2022-11-24T02:28:29.475Z,1.65
2022-11-24T02:30:59.760Z,1.85
2022-11-24T02:33:27.063Z,2.05
2022-11-24T02:35:54.904Z,1.70
2022-11-24T02:38:34.281Z,1.27
2022-11-24T02:41:07.570Z,1.65
2022-11-24T02:43:44.854Z,2.10
2022-11-24T02:46:12.052Z,1.40
2022-11-24T02:48:39.432Z,2.03
2022-11-24T02:51:06.551Z,2.00
2022-11-24T02:53:33.514Z,1.83
2022-11-24T02:56:00.567Z,1.75
2022-11-24T02:58:27.912Z,1.80
2022-11-24T03:00:55.109Z,1.90
2022-11-24T03:03:22.124Z,1.55
2022-11-24T03:05:49.166Z,1.55
2022-11-24T03:08:16.662Z,1.23
2022-11-24T03:10:43.661Z,1.80
2022-11-24T03:13:10.851Z,1.58
2022-11-24T03:15:38.048Z,1.45
2022-11-24T03:18:05.084Z,1.65
2022-11-24T03:20:32.367Z,1.80
2022-11-24T03:22:59.302Z,1.45
2022-11-24T03:25:26.240Z,1.33
2022-11-24T03:27:57.598Z,1.70
2022-11-24T03:30:24.622Z,1.55
2022-11-24T03:32:53.614Z,1.70
2022-11-24T03:35:23.829Z,2.05
2022-11-24T03:37:50.970Z,1.42
2022-11-24T03:40:18.112Z,1.60
2022-11-24T03:42:45.102Z,1.80
2022-11-24T03:45:30.304Z,1.58
2022-11-24T03:47:58.999Z,1.40
2022-11-24T03:50:25.930Z,1.30
2022-11-24T03:52:52.898Z,1.60
2022-11-24T03:55:19.865Z,1.92
2022-11-24T03:57:46.773Z,1.75
2022-11-24T04:00:14.267Z,1.50
2022-11-24T04:02:41.255Z,1.40
2022-11-24T04:05:09.495Z,1.38
2022-11-24T04:07:36.516Z,1.80
2022-11-24T04:10:04.145Z,1.60
2022-11-24T04:12:46.187Z,1.33
2022-11-24T04:15:18.003Z,1.25
2022-11-24T04:17:47.144Z,1.42
2022-11-24T04:20:15.437Z,2.00
2022-11-24T04:22:43.234Z,1.33
2022-11-24T04:25:11.244Z,1.85
2022-11-24T04:27:39.166Z,1.83
2022-11-24T04:30:07.658Z,2.22
2022-11-24T04:32:34.643Z,2.90
2022-11-24T04:35:01.654Z,2.78
2022-11-24T04:37:28.629Z,2.20
2022-11-24T04:39:55.552Z,1.80
2022-11-24T04:42:22.606Z,1.63
2022-11-24T04:44:49.587Z,1.73
2022-11-24T04:47:21.734Z,1.55
2022-11-24T04:49:49.532Z,1.35
2022-11-24T04:52:22.387Z,1.40
2022-11-24T04:54:50.132Z,1.73
2022-11-24T04:57:20.899Z,1.52
2022-11-24T04:59:48.472Z,1.23
2022-11-24T05:02:15.435Z,1.58
2022-11-24T05:04:42.592Z,1.00
2022-11-24T05:07:19.114Z,1.38
2022-11-24T05:10:06.210Z,1.88
2022-11-24T05:12:33.554Z,1.50
2022-11-24T05:15:02.826Z,1.35
2022-11-24T05:17:33.062Z,1.37
2022-11-24T05:20:00.594Z,1.40
2022-11-24T05:22:29.491Z,1.42
2022-11-24T05:24:56.532Z,1.45
2022-11-24T05:27:23.960Z,2.28
2022-11-24T05:29:50.962Z,1.55
2022-11-24T05:32:17.921Z,1.40
2022-11-24T05:34:44.999Z,2.00
2022-11-24T05:37:11.956Z,2.00
2022-11-24T05:39:38.912Z,1.75
2022-11-24T05:42:26.118Z,1.38
2022-11-24T05:44:53.821Z,2.38
2022-11-24T05:47:21.457Z,2.30
2022-11-24T05:49:48.379Z,1.65
2022-11-24T05:52:16.484Z,1.85
2022-11-24T05:54:43.890Z,1.50
2022-11-24T05:57:10.812Z,1.98
2022-11-24T05:59:37.760Z,1.60
2022-11-24T06:02:04.799Z,1.27
2022-11-24T06:04:32.500Z,1.25
2022-11-24T06:06:59.822Z,1.67
2022-11-24T06:09:26.985Z,1.50
2022-11-24T06:11:53.994Z,1.30
2022-11-24T06:14:21.096Z,1.90
2022-11-24T06:16:48.176Z,1.95
2022-11-24T06:19:15.268Z,1.75
2022-11-24T06:21:42.420Z,1.65
2022-11-24T06:24:09.498Z,2.70
2022-11-24T06:26:36.420Z,2.08
2022-11-24T06:29:03.733Z,2.53
2022-11-24T06:31:30.695Z,1.80
2022-11-24T06:33:57.776Z,1.98
2022-11-24T06:36:25.485Z,2.05
2022-11-24T06:38:52.678Z,2.00
2022-11-24T06:41:20.032Z,1.80
2022-11-24T06:43:47.906Z,2.47
2022-11-24T06:46:14.960Z,1.88
2022-11-24T06:48:41.966Z,2.17
2022-11-24T06:51:12.827Z,1.67
2022-11-24T06:53:40.940Z,2.13
2022-11-24T06:56:15.755Z,1.90
2022-11-24T06:58:47.361Z,1.80
2022-11-24T07:01:20.476Z,1.63
2022-11-24T07:03:48.309Z,1.90
2022-11-24T07:06:17.025Z,2.17
2022-11-24T07:08:44.382Z,1.83
2022-11-24T07:11:16.147Z,2.40
2022-11-24T07:13:44.351Z,1.95
2022-11-24T07:16:24.243Z,2.00
2022-11-24T07:18:54.013Z,2.10
2022-11-24T07:21:23.373Z,2.00
2022-11-24T07:23:56.122Z,1.98
2022-11-24T07:26:24.137Z,2.00
2022-11-24T07:28:51.556Z,2.30
2022-11-24T07:31:21.420Z,1.80
2022-11-24T07:33:50.264Z,1.85
2022-11-24T07:36:17.395Z,1.80
2022-11-24T07:38:45.594Z,1.77
2022-11-24T07:41:15.027Z,1.73
2022-11-24T07:43:42.203Z,2.00
2022-11-24T07:46:13.251Z,1.83
2022-11-24T07:48:40.491Z,1.85
2022-11-24T07:51:08.243Z,2.58
2022-11-24T07:53:36.309Z,2.03
2022-11-24T07:56:06.100Z,1.70
2022-11-24T07:58:35.937Z,1.73
2022-11-24T08:01:15.454Z,1.95
2022-11-24T08:03:43.387Z,1.52
2022-11-24T08:06:31.888Z,1.90
2022-11-24T08:08:59.016Z,2.25
2022-11-24T08:11:28.003Z,2.03
2022-11-24T08:13:54.975Z,2.08
2022-11-24T08:16:22.098Z,1.75
2022-11-24T08:18:51.787Z,2.13
2022-11-24T08:21:19.373Z,1.65
2022-11-24T08:23:46.491Z,2.00
2022-11-24T08:26:17.823Z,2.10
2022-11-24T08:28:46.678Z,2.08
2022-11-24T08:31:18.606Z,2.08
2022-11-24T08:33:46.456Z,1.55
2022-11-24T08:36:17.239Z,1.40
2022-11-24T08:38:45.403Z,1.67
2022-11-24T08:41:16.427Z,1.83
2022-11-24T08:46:14.102Z,1.60
2022-11-24T08:48:41.504Z,1.33
2022-11-24T08:51:14.780Z,1.70
2022-11-24T08:53:43.701Z,1.60
2022-11-24T08:56:12.938Z,1.77
2022-11-24T08:58:41.133Z,1.65
2022-11-24T09:01:16.712Z,1.77
2022-11-24T09:03:50.633Z,1.42
2022-11-24T09:06:24.777Z,1.48
2022-11-24T09:08:54.262Z,1.63
2022-11-24T09:11:22.475Z,1.30
2022-11-24T09:13:49.791Z,1.40
2022-11-24T09:16:20.196Z,1.20
2022-11-24T09:18:47.628Z,1.15
2022-11-24T09:21:18.829Z,1.23
2022-11-24T09:23:50.850Z,2.13
2022-11-24T09:26:28.939Z,1.00
2022-11-24T09:28:57.536Z,1.00
2022-11-24T09:31:31.660Z,1.08
2022-11-24T09:33:59.412Z,1.08
2022-11-24T09:36:27.370Z,0.95
2022-11-24T09:38:54.885Z,1.40
2022-11-24T09:41:48.533Z,1.05
2022-11-24T09:44:55.344Z,1.38
2022-11-24T09:47:59.050Z,1.15
2022-11-24T09:50:30.411Z,1.15
2022-11-24T09:53:23.511Z,0.90
2022-11-24T09:55:55.780Z,0.90
2022-11-24T09:58:45.749Z,1.15
2022-11-24T10:01:28.902Z,0.77
2022-11-24T10:04:01.078Z,0.60
2022-11-24T10:07:01.546Z,0.80
2022-11-24T10:09:48.471Z,1.27
2022-11-24T10:12:44.187Z,0.82
2022-11-24T10:15:44.919Z,0.95
2022-11-24T10:18:36.520Z,0.75
2022-11-24T10:21:18.290Z,0.68
2022-11-24T10:24:17.115Z,0.77
2022-11-24T10:27:16.274Z,1.10
2022-11-24T10:29:44.238Z,1.00
2022-11-24T10:32:35.309Z,1.55
2022-11-24T10:35:36.520Z,1.00
2022-11-24T10:41:15.458Z,0.98
2022-11-24T10:43:43.088Z,0.88
2022-11-24T10:46:16.635Z,1.50
2022-11-24T10:48:50.495Z,0.88
2022-11-24T10:51:40.108Z,1.05
2022-11-24T10:54:19.655Z,1.00
2022-11-24T10:56:50.250Z,1.30
2022-11-24T10:59:24.617Z,0.80
2022-11-24T11:01:52.922Z,0.88
2022-11-24T11:04:34.657Z,1.20
2022-11-24T11:07:23.653Z,1.13
2022-11-24T11:10:11.386Z,1.27
2022-11-24T11:12:45.773Z,1.02
2022-11-24T11:15:30.035Z,0.73
2022-11-24T11:18:00.139Z,0.90
2022-11-24T11:20:36.634Z,1.00
2022-11-24T11:23:22.606Z,1.15
2022-11-24T11:25:49.606Z,1.05
2022-11-24T11:28:30.041Z,0.93
2022-11-24T11:31:19.779Z,1.20
2022-11-24T11:34:35.477Z,1.00
2022-11-24T11:37:04.168Z,1.10
2022-11-24T11:39:49.064Z,1.50
2022-11-24T11:45:31.932Z,1.58
2022-11-24T11:48:01.783Z,1.10
2022-11-24T11:51:24.171Z,1.05
2022-11-24T11:54:24.990Z,1.27
2022-11-24T11:57:18.071Z,1.00
2022-11-24T12:00:02.197Z,1.38
2022-11-24T12:02:37.326Z,1.38
2022-11-24T12:05:41.648Z,1.70
2022-11-24T12:08:44.001Z,1.55
2022-11-24T12:11:33.748Z,1.42
2022-11-24T12:14:29.390Z,1.55
2022-11-24T12:16:59.492Z,1.70
2022-11-24T12:20:15.295Z,1.30
2022-11-24T12:23:11.211Z,1.80
2022-11-24T12:26:24.116Z,2.00
2022-11-24T12:29:57.658Z,1.35
2022-11-24T12:33:13.990Z,0.95
2022-11-24T12:36:03.442Z,1.58
2022-11-24T12:39:06.484Z,1.75
2022-11-24T12:42:01.596Z,1.33
2022-11-24T12:45:00.537Z,1.42
2022-11-24T12:48:25.026Z,1.58
2022-11-24T12:50:58.378Z,2.00
2022-11-24T12:53:31.687Z,1.80
2022-11-24T12:56:12.902Z,1.73
2022-11-24T12:59:21.318Z,1.67
2022-11-24T13:02:16.905Z,1.67
2022-11-24T13:05:14.622Z,1.67
2022-11-24T13:08:05.136Z,2.20
2022-11-24T13:10:54.928Z,1.23
2022-11-24T13:13:26.029Z,2.33
2022-11-24T13:16:07.037Z,2.10
2022-11-24T13:18:56.864Z,2.00
2022-11-24T13:21:47.203Z,2.78
2022-11-24T13:24:17.560Z,3.50
2022-11-24T13:27:13.796Z,2.30
2022-11-24T13:29:51.372Z,2.20
2022-11-24T13:32:21.397Z,1.90
2022-11-24T13:34:54.818Z,2.40
2022-11-24T13:37:29.028Z,2.40
2022-11-24T13:40:11.698Z,2.28
2022-11-24T13:43:01.985Z,1.77
2022-11-24T13:45:45.027Z,1.67
2022-11-24T13:48:21.657Z,1.77
2022-11-24T13:50:54.795Z,1.45
2022-11-24T13:53:40.454Z,1.40
2022-11-24T13:56:13.432Z,1.27
2022-11-24T13:58:59.836Z,1.40
2022-11-24T14:01:42.245Z,1.75
2022-11-24T14:04:34.971Z,2.35
2022-11-24T14:07:10.953Z,1.60
2022-11-24T14:09:48.015Z,1.73
2022-11-24T14:12:20.509Z,1.50
2022-11-24T14:14:50.673Z,1.77
2022-11-24T14:17:27.515Z,2.38
2022-11-24T14:19:58.470Z,1.65
2022-11-24T14:25:18.879Z,1.95
2022-11-24T14:27:46.281Z,1.60
2022-11-24T14:30:13.531Z,1.73
2022-11-24T14:32:42.188Z,1.58
2022-11-24T14:35:29.668Z,2.00
2022-11-24T14:37:57.171Z,1.88
2022-11-24T14:40:54.343Z,1.77
2022-11-24T14:43:32.636Z,1.77
2022-11-24T14:46:18.901Z,1.70
2022-11-24T14:48:53.169Z,2.45
2022-11-24T14:51:32.245Z,2.08
2022-11-24T14:54:06.906Z,2.15
2022-11-24T14:56:39.081Z,1.92
2022-11-24T14:59:27.346Z,1.83
2022-11-24T15:01:54.957Z,2.42
2022-11-24T15:07:27.147Z,3.05
2022-11-24T15:09:58.348Z,2.88
2022-11-24T15:12:48.058Z,3.65
2022-11-24T15:15:15.036Z,3.78
2022-11-24T15:17:55.470Z,4.13
2022-11-24T15:20:45.410Z,2.70
2022-11-24T15:23:28.223Z,2.58
2022-11-24T15:26:17.783Z,2.38
2022-11-24T15:28:46.882Z,2.10
2022-11-24T15:31:14.469Z,2.08
2022-11-24T15:33:42.129Z,2.00
2022-11-24T15:36:09.163Z,1.95
2022-11-24T15:38:36.084Z,1.50
2022-11-24T15:41:19.856Z,1.70
2022-11-24T15:43:47.344Z,1.63
2022-11-24T15:46:14.589Z,1.63
2022-11-24T15:48:41.677Z,1.70
2022-11-24T15:51:14.035Z,1.42
2022-11-24T15:53:58.865Z,1.83
2022-11-24T15:56:34.757Z,1.58
2022-11-24T15:59:03.027Z,1.77
2022-11-24T16:01:33.093Z,2.28
2022-11-24T16:04:01.384Z,2.50
2022-11-24T16:06:28.475Z,3.10
2022-11-24T16:08:55.602Z,2.80
2022-11-24T16:11:23.370Z,3.00
2022-11-24T16:13:53.272Z,1.90
2022-11-24T16:16:22.825Z,1.95
2022-11-24T16:18:50.537Z,1.55
2022-11-24T16:21:17.604Z,1.83
2022-11-24T16:23:45.527Z,1.83
2022-11-24T16:26:12.489Z,1.63
2022-11-24T16:28:39.443Z,1.48
2022-11-24T16:31:06.483Z,1.58
2022-11-24T16:33:33.485Z,1.73
2022-11-24T16:36:00.426Z,2.10
2022-11-24T16:38:27.351Z,2.33
2022-11-24T16:40:56.275Z,2.05
2022-11-24T16:43:24.400Z,2.00
2022-11-24T16:46:22.553Z,2.10
2022-11-24T16:48:52.672Z,2.13
2022-11-24T16:51:22.664Z,2.07
2022-11-24T16:54:00.426Z,1.77
2022-11-24T16:56:28.830Z,2.47
2022-11-24T16:58:56.075Z,1.58
2022-11-24T17:01:23.288Z,1.75
2022-11-24T17:03:50.347Z,2.08
2022-11-24T17:06:17.761Z,2.20
2022-11-24T17:08:46.715Z,1.88
2022-11-24T17:11:17.171Z,1.70
2022-11-24T17:13:45.708Z,1.85
2022-11-24T17:16:16.681Z,1.80
2022-11-24T17:21:17.746Z,1.55
2022-11-24T17:23:45.453Z,1.60
2022-11-24T17:26:16.240Z,2.92
2022-11-24T17:28:43.923Z,2.25
2022-11-24T17:31:22.504Z,2.15
2022-11-24T17:33:51.324Z,1.90
2022-11-24T17:36:18.723Z,1.85
2022-11-24T17:38:45.840Z,1.70
2022-11-24T17:41:12.895Z,1.77
2022-11-24T17:43:39.939Z,1.60
2022-11-24T17:46:07.590Z,1.52
2022-11-24T17:48:35.736Z,2.15
2022-11-24T17:51:09.879Z,1.55
2022-11-24T17:53:37.497Z,1.88
2022-11-24T17:56:06.123Z,1.77
2022-11-24T17:58:39.695Z,1.60
2022-11-24T18:01:11.016Z,1.90
2022-11-24T18:03:40.037Z,1.83
2022-11-24T18:06:15.724Z,1.90
2022-11-24T18:08:45.547Z,2.35
2022-11-24T18:11:28.869Z,2.58
2022-11-24T18:14:02.315Z,2.78
2022-11-24T18:16:32.595Z,3.00
2022-11-24T18:19:10.932Z,3.43
2022-11-24T18:21:40.909Z,3.15
2022-11-24T18:24:09.764Z,4.22
2022-11-24T18:26:38.313Z,3.92
2022-11-24T18:29:05.410Z,3.22
2022-11-24T18:31:34.211Z,1.95
2022-11-24T18:34:02.615Z,1.83
2022-11-24T18:36:30.804Z,1.38
2022-11-24T18:39:07.224Z,1.48
2022-11-24T18:41:35.054Z,1.70
2022-11-24T18:44:02.989Z,1.95
2022-11-24T18:46:30.046Z,2.13
2022-11-24T18:48:57.094Z,1.92
2022-11-24T18:51:24.197Z,2.58
2022-11-24T18:53:54.511Z,1.92
2022-11-24T18:56:21.602Z,1.83
2022-11-24T18:58:52.439Z,1.73
2022-11-24T19:01:28.935Z,2.20
2022-11-24T19:03:59.447Z,2.13
2022-11-24T19:06:35.116Z,2.40
2022-11-24T19:09:12.941Z,2.45
2022-11-24T19:11:43.908Z,3.00
2022-11-24T19:14:15.616Z,2.38
2022-11-24T19:16:43.661Z,2.00
2022-11-24T19:19:12.582Z,1.83
2022-11-24T19:21:41.067Z,1.38
2022-11-24T19:24:10.036Z,2.22
2022-11-24T19:26:38.469Z,1.40
2022-11-24T19:29:07.676Z,2.00
2022-11-24T19:31:35.512Z,1.42
2022-11-24T19:34:03.325Z,1.45
2022-11-24T19:36:31.162Z,1.83
2022-11-24T19:38:59.425Z,1.88
2022-11-24T19:41:30.016Z,1.35
2022-11-24T19:43:58.637Z,1.40
2022-11-24T19:46:29.209Z,1.50
2022-11-24T19:48:59.477Z,1.65
2022-11-24T19:51:30.716Z,1.67
2022-11-24T19:53:58.296Z,1.70
2022-11-24T19:56:29.510Z,1.73
2022-11-24T19:58:57.250Z,1.20
2022-11-24T20:01:28.246Z,1.42
2022-11-24T20:06:45.983Z,1.27
2022-11-24T20:09:16.372Z,1.27
2022-11-24T20:11:43.914Z,1.88
2022-11-24T20:14:17.537Z,2.13
2022-11-24T20:16:46.970Z,1.63
2022-11-24T20:19:16.520Z,1.73
2022-11-24T20:21:46.315Z,1.50
2022-11-24T20:24:21.772Z,1.55
2022-11-24T20:26:59.991Z,1.60
2022-11-24T20:29:33.583Z,1.83
2022-11-24T20:32:00.646Z,2.08
2022-11-24T20:34:28.336Z,1.77
2022-11-24T20:36:55.441Z,1.35
2022-11-24T20:39:26.950Z,2.13
2022-11-24T20:41:55.485Z,1.70
2022-11-24T20:44:23.704Z,2.20
2022-11-24T20:46:50.965Z,1.80
2022-11-24T20:49:20.574Z,2.00
2022-11-24T20:51:47.835Z,1.88
2022-11-24T20:54:17.917Z,1.90
2022-11-24T20:56:46.573Z,2.53
2022-11-24T20:59:23.128Z,2.67
2022-11-24T21:01:51.937Z,2.63
2022-11-24T21:04:22.972Z,2.30
2022-11-24T21:09:18.002Z,1.95
2022-11-24T21:11:45.890Z,2.30
2022-11-24T21:14:13.028Z,1.60
2022-11-24T21:16:42.033Z,1.88
2022-11-24T21:19:15.000Z,2.25
2022-11-24T21:21:42.754Z,2.47
2022-11-24T21:24:18.712Z,1.95
2022-11-24T21:26:50.337Z,1.90
2022-11-24T21:29:19.371Z,1.80
2022-11-24T21:31:48.028Z,2.60
2022-11-24T21:34:18.321Z,2.33
2022-11-24T21:36:45.736Z,1.88
2022-11-24T21:39:14.826Z,2.10
2022-11-24T21:41:42.209Z,1.50
2022-11-24T21:44:11.434Z,2.10
2022-11-24T21:46:44.116Z,1.73
2022-11-24T21:49:13.523Z,1.77
2022-11-24T21:51:42.775Z,1.73
2022-11-24T21:54:09.748Z,1.60
2022-11-24T21:56:36.705Z,2.05
2022-11-24T21:59:03.678Z,1.83
2022-11-24T22:01:30.701Z,2.03
2022-11-24T22:03:57.763Z,1.75
2022-11-24T22:06:24.855Z,1.70
2022-11-24T22:08:51.970Z,2.03
2022-11-24T22:11:22.404Z,1.85
2022-11-24T22:13:50.526Z,1.80
2022-11-24T22:16:20.847Z,2.60
2022-11-24T22:18:48.385Z,1.60
2022-11-24T22:21:23.681Z,2.42
2022-11-24T22:23:52.503Z,1.60
2022-11-24T22:26:22.537Z,2.10
2022-11-24T22:28:50.643Z,1.88
2022-11-24T22:31:32.503Z,2.00
2022-11-24T22:34:00.787Z,1.95
2022-11-24T22:36:29.962Z,1.60
2022-11-24T22:39:04.939Z,1.80
2022-11-24T22:41:34.284Z,2.00
2022-11-24T22:44:01.621Z,1.50
2022-11-24T22:46:31.141Z,1.80
2022-11-24T22:49:00.377Z,1.50
2022-11-24T22:51:33.598Z,1.95
2022-11-24T22:54:03.490Z,1.95
2022-11-24T22:56:32.391Z,1.65
2022-11-24T22:59:04.460Z,1.23
2022-11-24T23:01:33.787Z,2.15
2022-11-24T23:04:01.096Z,1.58
2022-11-24T23:06:31.387Z,2.13
2022-11-24T23:09:00.933Z,1.63
2022-11-24T23:11:38.580Z,1.83
2022-11-24T23:14:14.640Z,1.73
2022-11-24T23:16:42.606Z,1.73
2022-11-24T23:19:09.908Z,1.98
2022-11-24T23:21:40.905Z,1.67
2022-11-24T23:26:39.783Z,1.95
2022-11-24T23:29:08.112Z,1.70
2022-11-24T23:31:36.289Z,1.52
2022-11-24T23:34:04.521Z,1.70
2022-11-24T23:36:32.182Z,1.52
2022-11-24T23:39:08.511Z,1.70
2022-11-24T23:41:35.981Z,2.20
2022-11-24T23:44:03.208Z,1.80
2022-11-24T23:46:30.358Z,2.10
2022-11-24T23:48:57.677Z,2.05
2022-11-24T23:51:32.490Z,1.65
2022-11-24T23:54:01.139Z,1.67
2022-11-24T23:56:33.726Z,1.50
2022-11-24T23:59:03.299Z,2.05
